Time;durP1;ratioP1;P1;durP2;ratioP2;P2;SDS_P1;SDS_P2;PMS_P1;PMS_P2;Temp;Humidity;BMP_temperature;BMP_pressure;BME280_temperature;BME280_humidity;BME280_pressure;Samples;Min_cycle;Max_cycle;Signal;HPM_P1;HPM_P2
2021/01/16 00:00:35;;;;;;;0.00;0.00;;;0.40;99.90;;;;;;5009823;28;20034;-89
2021/01/16 00:03:01;;;;;;;0.20;0.20;;;0.40;99.90;;;;;;5027767;28;20394;-90
2021/01/16 00:05:29;;;;;;;0.00;0.00;;;0.40;99.90;;;;;;5012762;28;20033;-89
2021/01/16 00:08:06;;;;;;;0.00;0.00;;;0.40;99.90;;;;;;5012451;28;20036;-90
2021/01/16 00:10:34;;;;;;;0.00;0.00;;;0.40;99.90;;;;;;5012452;28;20045;-90
2021/01/16 00:13:01;;;;;;;0.00;0.00;;;0.40;99.90;;;;;;5012409;28;20022;-89
2021/01/16 00:15:27;;;;;;;0.00;0.00;;;0.40;99.90;;;;;;5009242;28;20034;-89
2021/01/16 00:18:04;;;;;;;0.85;0.85;;;0.30;99.90;;;;;;5009790;28;20034;-90
2021/01/16 00:20:34;;;;;;;0.00;0.00;;;0.30;99.90;;;;;;5028714;28;20101;-89
2021/01/16 00:23:00;;;;;;;;;;;0.30;99.90;;;;;;5012533;28;20032;-90
2021/01/16 00:25:26;;;;;;;0.00;0.00;;;0.40;99.90;;;;;;5009233;28;19909;-89
2021/01/16 00:27:52;;;;;;;0.00;0.00;;;0.40;99.90;;;;;;5009925;28;20072;-90
2021/01/16 00:30:20;;;;;;;0.00;0.00;;;0.40;99.90;;;;;;5012316;28;20044;-90
2021/01/16 00:32:46;;;;;;;0.00;0.00;;;0.40;99.90;;;;;;5012081;28;20092;-90
2021/01/16 00:35:14;;;;;;;0.00;0.00;;;0.30;99.90;;;;;;5012316;28;20243;-90
2021/01/16 00:37:40;;;;;;;0.00;0.00;;;0.40;99.90;;;;;;5028517;28;20029;-90
2021/01/16 00:40:09;;;;;;;0.50;0.38;;;0.40;99.90;;;;;;5012333;28;20036;-90
2021/01/16 00:42:43;;;;;;;0.00;0.00;;;0.40;99.90;;;;;;5012223;28;20025;-90
2021/01/16 00:45:10;;;;;;;2.45;2.20;;;0.40;99.90;;;;;;5011978;28;20037;-89
2021/01/16 00:47:40;;;;;;;1.13;1.02;;;0.40;99.90;;;;;;5008747;28;20060;-90
2021/01/16 00:50:18;;;;;;;0.00;0.00;;;0.40;99.90;;;;;;5014443;28;20042;-89
2021/01/16 00:52:57;;;;;;;0.52;0.52;;;0.40;99.90;;;;;;4988884;28;20094;-90
2021/01/16 00:55:28;;;;;;;0.00;0.00;;;0.40;99.90;;;;;;4990423;28;20026;-90
2021/01/16 00:57:55;;;;;;;0.00;0.00;;;0.40;99.90;;;;;;4973305;28;20481;-90
2021/01/16 01:00:27;;;;;;;0.00;0.00;;;0.40;99.90;;;;;;4989829;28;20050;-90
2021/01/16 01:02:54;;;;;;;0.00;0.00;;;0.40;99.90;;;;;;4988925;28;20030;-90
2021/01/16 01:05:22;;;;;;;0.00;0.00;;;0.40;99.90;;;;;;4989070;28;20485;-89
2021/01/16 01:07:49;;;;;;;2.75;1.00;;;0.40;99.90;;;;;;4989141;28;20037;-89
2021/01/16 01:10:18;;;;;;;0.00;0.00;;;0.40;99.90;;;;;;5005269;28;20038;-90
2021/01/16 01:12:43;;;;;;;0.00;0.00;;;0.40;99.90;;;;;;5005141;28;20041;-90
2021/01/16 01:15:09;;;;;;;0.00;0.00;;;0.40;99.90;;;;;;4988745;28;20053;-90
2021/01/16 01:17:35;;;;;;;0.00;0.00;;;0.40;99.90;;;;;;5005100;28;20433;-90
2021/01/16 01:20:04;;;;;;;0.00;0.00;;;0.40;99.90;;;;;;4973415;28;20101;-90
2021/01/16 01:22:34;;;;;;;0.00;0.00;;;0.40;99.90;;;;;;5009158;28;20070;-89
2021/01/16 01:25:00;;;;;;;0.00;0.00;;;0.50;99.90;;;;;;4992900;28;20133;-90
2021/01/16 01:27:26;;;;;;;0.00;0.00;;;0.40;99.90;;;;;;5009041;28;20054;-90
2021/01/16 01:29:52;;;;;;;0.03;0.03;;;0.40;99.90;;;;;;5008951;28;20045;-90
2021/01/16 01:32:17;;;;;;;0.32;0.32;;;0.40;99.90;;;;;;5009134;28;20045;-90
2021/01/16 01:34:43;;;;;;;0.17;0.17;;;0.40;99.90;;;;;;4992561;28;20172;-90
2021/01/16 01:37:09;;;;;;;0.98;0.98;;;0.40;99.90;;;;;;4976578;28;20101;-90
2021/01/16 01:39:35;;;;;;;0.13;0.13;;;0.40;99.90;;;;;;4992503;28;20042;-90
2021/01/16 01:42:00;;;;;;;0.00;0.00;;;0.40;99.90;;;;;;5008723;28;20042;-90
2021/01/16 01:44:26;;;;;;;0.00;0.00;;;0.40;99.90;;;;;;5008568;28;20033;-90
2021/01/16 01:46:52;;;;;;;0.00;0.00;;;0.40;99.90;;;;;;5012881;28;20073;-89
2021/01/16 01:49:18;;;;;;;0.00;0.00;;;0.40;99.90;;;;;;5027254;28;20034;-90
2021/01/16 01:51:44;;;;;;;0.00;0.00;;;0.40;99.90;;;;;;4995668;28;20038;-90
2021/01/16 01:54:10;;;;;;;0.00;0.00;;;0.40;99.90;;;;;;4995400;28;20409;-90
2021/01/16 01:56:38;;;;;;;2.03;1.90;;;0.40;99.90;;;;;;4995597;28;20041;-90
2021/01/16 01:59:07;;;;;;;0.00;0.00;;;0.40;99.90;;;;;;4996092;28;20163;-89
2021/01/16 02:01:38;;;;;;;0.00;0.00;;;0.40;99.90;;;;;;4997358;28;20033;-89
2021/01/16 02:04:05;;;;;;;;;;;0.40;99.90;;;;;;4995823;28;20038;-90
2021/01/16 02:06:30;;;;;;;3.28;3.17;;;0.40;99.90;;;;;;4995696;28;19972;-89
2021/01/16 02:08:56;;;;;;;0.00;0.00;;;0.40;99.90;;;;;;4995411;28;20014;-90
2021/01/16 02:11:23;;;;;;;0.00;0.00;;;0.40;99.90;;;;;;5011688;28;20045;-89
2021/01/16 02:13:49;;;;;;;0.00;0.00;;;0.40;99.90;;;;;;4995267;28;20034;-90
2021/01/16 02:16:27;;;;;;;0.00;0.00;;;0.40;99.90;;;;;;4995088;28;20040;-89
2021/01/16 02:18:57;;;;;;;0.00;0.00;;;0.40;99.90;;;;;;4995138;28;20030;-90
2021/01/16 02:21:26;;;;;;;0.55;0.55;;;0.40;99.90;;;;;;4995304;28;20038;-90
2021/01/16 02:24:04;;;;;;;0.00;0.00;;;0.40;99.90;;;;;;4990950;28;20045;-90
2021/01/16 02:26:51;;;;;;;0.00;0.00;;;0.40;99.90;;;;;;5006516;28;20505;-89
2021/01/16 02:29:18;;;;;;;0.00;0.00;;;0.40;99.90;;;;;;5009095;28;20044;-90
2021/01/16 02:31:51;;;;;;;0.00;0.00;;;0.40;99.90;;;;;;4993676;28;20470;-90
2021/01/16 02:34:19;;;;;;;0.00;0.00;;;0.40;99.90;;;;;;4994899;28;20025;-90
2021/01/16 02:37:19;;;;;;;0.00;0.00;;;0.40;99.90;;;;;;4994641;28;20066;-90
2021/01/16 02:40:01;;;;;;;0.45;0.45;;;0.40;99.90;;;;;;4994698;28;20097;-90
2021/01/16 02:42:56;;;;;;;0.00;0.00;;;0.40;99.90;;;;;;4994562;28;20038;-90
2021/01/16 02:45:43;;;;;;;2.05;0.75;;;0.40;99.90;;;;;;5007663;28;20065;-89
2021/01/16 02:48:30;;;;;;;0.00;0.00;;;0.40;99.90;;;;;;4902252;29;20060;-90
2021/01/16 02:51:01;;;;;;;0.00;0.00;;;0.40;99.90;;;;;;4901878;29;20056;-90
2021/01/16 02:53:35;;;;;;;0.00;0.00;;;0.40;99.90;;;;;;4913514;29;20134;-90
2021/01/16 02:56:12;;;;;;;0.00;0.00;;;0.40;99.90;;;;;;4913406;29;20040;-90
2021/01/16 02:58:38;;;;;;;0.00;0.00;;;0.40;99.90;;;;;;4913541;29;20043;-90
2021/01/16 03:01:04;;;;;;;0.00;0.00;;;0.40;99.90;;;;;;4913528;29;20436;-89
2021/01/16 03:03:31;;;;;;;0.10;0.10;;;0.40;99.90;;;;;;4913262;29;20052;-90
2021/01/16 03:05:56;;;;;;;1.73;1.65;;;0.40;99.90;;;;;;4913032;29;20040;-90
2021/01/16 03:08:23;;;;;;;1.65;1.55;;;0.40;99.90;;;;;;4913270;29;20044;-90
2021/01/16 03:10:49;;;;;;;0.00;0.00;;;0.40;99.90;;;;;;4912761;29;20055;-89
2021/01/16 03:13:15;;;;;;;0.00;0.00;;;0.40;99.90;;;;;;4913242;29;20047;-90
2021/01/16 03:15:41;;;;;;;0.00;0.00;;;0.40;99.90;;;;;;4913705;29;20036;-89
2021/01/16 03:18:08;;;;;;;0.00;0.00;;;0.40;99.90;;;;;;4913270;29;20040;-89
2021/01/16 03:20:34;;;;;;;0.00;0.00;;;0.40;99.90;;;;;;4913404;29;20089;-89
2021/01/16 03:23:01;;;;;;;0.00;0.00;;;0.40;99.90;;;;;;4912937;29;20082;-90
2021/01/16 03:25:29;;;;;;;0.00;0.00;;;0.40;99.90;;;;;;4971730;28;20044;-89
2021/01/16 03:27:56;;;;;;;0.00;0.00;;;0.40;99.90;;;;;;4993732;28;20037;-89
2021/01/16 03:30:22;;;;;;;0.00;0.00;;;0.40;99.90;;;;;;4994055;28;20052;-90
2021/01/16 03:32:50;;;;;;;0.00;0.00;;;0.40;99.90;;;;;;4993715;28;20462;-90
2021/01/16 03:35:17;;;;;;;0.00;0.00;;;0.40;99.90;;;;;;4993623;28;20038;-90
2021/01/16 03:37:44;;;;;;;0.32;0.25;;;0.40;99.90;;;;;;4993604;28;20025;-90
2021/01/16 03:40:10;;;;;;;0.00;0.00;;;0.40;99.90;;;;;;4993536;28;20041;-90
2021/01/16 03:42:36;;;;;;;0.55;0.55;;;0.40;99.90;;;;;;4993167;28;20026;-90
2021/01/16 03:45:08;;;;;;;0.00;0.00;;;0.40;99.90;;;;;;4993341;28;20061;-89
2021/01/16 03:47:34;;;;;;;0.00;0.00;;;0.40;99.90;;;;;;5019612;28;20489;-89
2021/01/16 03:50:00;;;;;;;0.00;0.00;;;0.40;99.90;;;;;;5003342;28;20053;-90
2021/01/16 03:52:34;;;;;;;0.00;0.00;;;0.40;99.90;;;;;;4993321;28;20022;-89
2021/01/16 03:55:00;;;;;;;0.30;0.30;;;0.40;99.90;;;;;;5009467;28;20030;-90
2021/01/16 03:57:27;;;;;;;0.00;0.00;;;0.40;99.90;;;;;;4993207;28;20030;-90
2021/01/16 03:59:53;;;;;;;0.00;0.00;;;0.40;99.90;;;;;;4993506;28;20038;-90
2021/01/16 04:02:19;;;;;;;0.70;0.70;;;0.40;99.90;;;;;;4993196;28;20030;-90
2021/01/16 04:04:46;;;;;;;0.00;0.00;;;0.40;99.90;;;;;;5009350;28;20037;-89
2021/01/16 04:07:11;;;;;;;0.38;0.38;;;0.40;99.90;;;;;;4993093;28;20033;-89
2021/01/16 04:09:37;;;;;;;0.00;0.00;;;0.40;99.90;;;;;;5009681;28;20090;-89
2021/01/16 04:12:03;;;;;;;0.00;0.00;;;0.30;99.90;;;;;;4992861;28;20029;-89
2021/01/16 04:14:29;;;;;;;0.00;0.00;;;0.30;99.90;;;;;;5010232;28;20037;-90
2021/01/16 04:16:54;;;;;;;2.55;1.35;;;0.30;99.90;;;;;;5010890;28;20029;-90
2021/01/16 04:19:21;;;;;;;2.88;2.72;;;0.30;99.90;;;;;;5010254;28;20089;-90
2021/01/16 04:21:46;;;;;;;0.00;0.00;;;0.40;99.90;;;;;;5009219;28;20466;-90
2021/01/16 04:24:14;;;;;;;0.00;0.00;;;0.40;99.90;;;;;;4993180;28;20105;-90
2021/01/16 04:26:39;;;;;;;0.00;0.00;;;0.40;99.90;;;;;;4993197;28;20037;-89
2021/01/16 04:29:05;;;;;;;0.00;0.00;;;0.40;99.90;;;;;;5008923;28;20033;-89
2021/01/16 04:31:31;;;;;;;0.08;0.08;;;0.30;99.90;;;;;;4992644;28;20033;-89
2021/01/16 04:33:57;;;;;;;0.00;0.00;;;0.30;99.90;;;;;;4990108;28;20041;-89
2021/01/16 04:36:22;;;;;;;0.43;0.43;;;0.30;99.90;;;;;;4977870;28;20050;-89
2021/01/16 04:38:48;;;;;;;0.00;0.00;;;0.40;99.90;;;;;;5007123;28;20105;-90
2021/01/16 04:41:14;;;;;;;0.00;0.00;;;0.30;99.90;;;;;;4992699;28;20049;-89
2021/01/16 04:43:40;;;;;;;1.55;1.55;;;0.30;99.90;;;;;;4992468;28;20169;-89
2021/01/16 04:46:08;;;;;;;0.00;0.00;;;0.40;99.90;;;;;;5008626;28;20032;-89
2021/01/16 04:48:38;;;;;;;3.22;3.03;;;0.40;99.90;;;;;;5003192;28;20061;-89
2021/01/16 04:51:05;;;;;;;1.25;0.82;;;0.40;99.90;;;;;;5008273;28;20038;-89
2021/01/16 04:53:37;;;;;;;0.00;0.00;;;0.40;99.90;;;;;;5008670;28;20034;-89
2021/01/16 04:56:14;;;;;;;2.45;0.30;;;0.40;99.90;;;;;;5007844;28;20034;-89
2021/01/16 04:58:40;;;;;;;0.00;0.00;;;0.40;99.90;;;;;;5002671;28;20046;-89
2021/01/16 05:01:08;;;;;;;0.00;0.00;;;0.40;99.90;;;;;;4992158;28;20026;-89
2021/01/16 05:03:41;;;;;;;0.00;0.00;;;0.40;99.90;;;;;;4992222;28;20064;-90
2021/01/16 05:06:14;;;;;;;0.00;0.00;;;0.40;99.90;;;;;;4992518;28;20041;-89
2021/01/16 05:08:43;;;;;;;0.00;0.00;;;0.30;99.90;;;;;;4991052;28;20034;-90
2021/01/16 05:11:38;;;;;;;0.00;0.00;;;0.40;99.90;;;;;;4992096;28;20061;-89
2021/01/16 05:14:12;;;;;;;0.00;0.00;;;0.30;99.90;;;;;;4992135;28;20030;-89
2021/01/16 05:16:55;;;;;;;0.00;0.00;;;0.30;99.90;;;;;;4991893;28;20034;-89
2021/01/16 05:19:26;;;;;;;4.95;2.17;;;0.40;99.90;;;;;;4992361;28;20407;-90
2021/01/16 05:21:55;;;;;;;0.00;0.00;;;0.40;99.90;;;;;;4992235;28;20246;-90
2021/01/16 05:24:22;;;;;;;0.00;0.00;;;0.40;99.90;;;;;;5009210;28;20474;-89
2021/01/16 05:26:54;;;;;;;0.00;0.00;;;0.40;99.90;;;;;;4991988;28;20026;-90
2021/01/16 05:29:25;;;;;;;0.00;0.00;;;0.40;99.90;;;;;;4991871;28;20105;-90
2021/01/16 05:31:52;;;;;;;0.93;0.75;;;0.40;99.90;;;;;;4991899;28;20509;-90
2021/01/16 05:34:18;;;;;;;1.05;0.93;;;0.40;99.90;;;;;;4992303;28;20033;-89
2021/01/16 05:36:49;;;;;;;1.80;1.10;;;0.40;99.90;;;;;;4992078;28;20029;-90
2021/01/16 05:39:16;;;;;;;0.00;0.00;;;0.40;99.90;;;;;;4984447;28;20029;-89
2021/01/16 05:41:46;;;;;;;0.52;0.52;;;0.40;99.90;;;;;;4991650;28;20034;-89
2021/01/16 05:44:12;;;;;;;0.00;0.00;;;0.40;99.90;;;;;;4991976;28;20037;-90
2021/01/16 05:46:43;;;;;;;1.45;1.35;;;0.40;99.90;;;;;;4993753;28;20033;-89
2021/01/16 05:49:14;;;;;;;0.00;0.00;;;0.40;99.90;;;;;;5024976;28;20042;-88
2021/01/16 05:51:43;;;;;;;0.28;0.28;;;0.40;99.90;;;;;;5008038;28;20038;-89
2021/01/16 05:54:10;;;;;;;0.00;0.00;;;0.40;99.90;;;;;;5008053;28;20037;-89
2021/01/16 05:56:38;;;;;;;0.00;0.00;;;0.40;99.90;;;;;;5007848;28;20026;-89
2021/01/16 05:59:10;;;;;;;0.00;0.00;;;0.40;99.90;;;;;;5024535;28;20038;-90
2021/01/16 06:01:37;;;;;;;2.67;1.50;;;0.40;99.90;;;;;;5007964;28;20030;-89
2021/01/16 06:04:04;;;;;;;0.00;0.00;;;0.40;99.90;;;;;;5024283;28;20033;-89
2021/01/16 06:06:34;;;;;;;0.00;0.00;;;0.40;99.90;;;;;;5008957;28;20030;-89
2021/01/16 06:09:00;;;;;;;;;;;0.40;99.90;;;;;;5012035;28;20026;-90
2021/01/16 06:11:25;;;;;;;0.00;0.00;;;0.40;99.90;;;;;;5011141;28;19940;-89
2021/01/16 06:13:55;;;;;;;0.00;0.00;;;0.40;99.90;;;;;;5027992;28;20098;-89
2021/01/16 06:16:21;;;;;;;0.00;0.00;;;0.40;99.90;;;;;;5027357;28;20033;-89
2021/01/16 06:18:54;;;;;;;0.10;0.10;;;0.40;99.90;;;;;;5011350;28;20034;-90
2021/01/16 06:21:25;;;;;;;0.00;0.00;;;0.40;99.90;;;;;;5025538;28;20044;-89
2021/01/16 06:24:01;;;;;;;0.00;0.00;;;0.40;99.90;;;;;;4992218;28;20030;-87
2021/01/16 06:26:28;;;;;;;0.00;0.00;;;0.40;99.90;;;;;;4995084;28;20084;-88
2021/01/16 06:29:03;;;;;;;0.73;0.73;;;0.40;99.90;;;;;;4995131;28;20037;-89
2021/01/16 06:31:31;;;;;;;0.55;0.45;;;0.50;99.90;;;;;;4994345;28;20065;-88
2021/01/16 06:34:05;;;;;;;0.00;0.00;;;0.50;99.90;;;;;;4994845;28;20025;-88
2021/01/16 06:36:37;;;;;;;0.00;0.00;;;0.40;99.90;;;;;;4994202;28;20037;-87
2021/01/16 06:39:08;;;;;;;1.25;1.25;;;0.50;99.90;;;;;;4994578;28;20049;-88
2021/01/16 06:41:44;;;;;;;0.00;0.00;;;0.50;99.90;;;;;;4994500;28;20080;-88
2021/01/16 06:44:15;;;;;;;0.00;0.00;;;0.40;99.90;;;;;;4994585;28;20037;-88
2021/01/16 06:46:49;;;;;;;0.00;0.00;;;0.50;99.90;;;;;;4996550;28;20525;-88
2021/01/16 06:49:20;;;;;;;0.00;0.00;;;0.40;99.90;;;;;;5007141;28;20410;-88
2021/01/16 06:51:45;;;;;;;0.00;0.00;;;0.40;99.90;;;;;;5007087;28;20419;-87
2021/01/16 06:54:11;;;;;;;0.10;0.10;;;0.50;99.90;;;;;;5007390;28;20038;-87
2021/01/16 06:56:41;;;;;;;0.00;0.00;;;0.50;99.90;;;;;;4990948;28;20027;-87
2021/01/16 06:59:13;;;;;;;;;;;0.40;99.90;;;;;;5007793;28;20093;-88
2021/01/16 07:01:41;;;;;;;0.43;0.43;;;0.40;99.90;;;;;;5007173;28;19917;-87
2021/01/16 07:04:12;;;;;;;0.00;0.00;;;0.40;99.90;;;;;;5007228;28;20034;-88
2021/01/16 07:06:45;;;;;;;0.00;0.00;;;0.50;99.90;;;;;;5007273;28;20034;-87
2021/01/16 07:09:22;;;;;;;0.00;0.00;;;0.40;99.90;;;;;;5007311;28;20054;-87
2021/01/16 07:11:52;;;;;;;0.00;0.00;;;0.50;99.90;;;;;;5007004;28;20093;-88
2021/01/16 07:14:18;;;;;;;0.65;0.65;;;0.50;99.90;;;;;;5007227;28;20497;-87
2021/01/16 07:16:46;;;;;;;0.00;0.00;;;0.50;99.90;;;;;;4990580;28;20039;-88
2021/01/16 07:19:23;;;;;;;0.00;0.00;;;0.50;99.90;;;;;;5006274;28;20057;-87
2021/01/16 07:21:49;;;;;;;0.55;0.55;;;0.40;99.90;;;;;;5006899;28;20034;-88
2021/01/16 07:24:16;;;;;;;2.20;0.55;;;0.50;99.90;;;;;;4990751;28;20070;-88
2021/01/16 07:26:49;;;;;;;0.00;0.00;;;0.40;99.90;;;;;;5006956;28;20038;-88
2021/01/16 07:29:15;;;;;;;0.00;0.00;;;0.40;99.90;;;;;;5006430;28;20066;-87
2021/01/16 07:31:44;;;;;;;3.03;2.55;;;0.40;99.90;;;;;;4990626;28;20061;-88
2021/01/16 07:34:10;;;;;;;0.00;0.00;;;0.40;99.90;;;;;;5006858;28;20053;-87
2021/01/16 07:36:36;;;;;;;0.60;0.60;;;0.50;99.90;;;;;;5006600;28;20063;-88
2021/01/16 07:39:09;;;;;;;0.20;0.20;;;0.50;99.90;;;;;;5006779;28;20033;-87
2021/01/16 07:41:36;;;;;;;0.00;0.00;;;0.50;99.90;;;;;;5006414;28;20050;-88
2021/01/16 07:44:10;;;;;;;0.00;0.00;;;0.50;99.90;;;;;;5006559;28;20038;-87
2021/01/16 07:46:42;;;;;;;0.00;0.00;;;0.50;99.90;;;;;;5007657;28;20027;-87
2021/01/16 07:49:08;;;;;;;0.00;0.00;;;0.50;99.90;;;;;;4990964;28;20052;-87
2021/01/16 07:51:35;;;;;;;0.00;0.00;;;0.50;99.90;;;;;;4974046;28;20038;-87
2021/01/16 07:54:03;;;;;;;0.00;0.00;;;0.50;99.90;;;;;;4974188;28;20133;-88
2021/01/16 07:56:38;;;;;;;1.42;1.38;;;0.50;99.90;;;;;;4970135;28;20039;-87
2021/01/16 07:59:20;;;;;;;0.00;0.00;;;0.50;99.90;;;;;;4983751;28;20382;-88
2021/01/16 08:01:58;;;;;;;0.00;0.00;;;0.50;99.90;;;;;;4989405;28;20062;-87
2021/01/16 08:04:49;;;;;;;0.00;0.00;;;0.50;99.90;;;;;;4973196;28;20078;-89
2021/01/16 08:07:24;;;;;;;0.00;0.00;;;0.50;99.90;;;;;;4989317;28;20058;-88
2021/01/16 08:09:52;;;;;;;0.60;0.60;;;0.50;99.90;;;;;;4973024;28;20133;-87
2021/01/16 08:12:21;;;;;;;0.10;0.10;;;0.60;99.90;;;;;;4989189;28;20023;-88
2021/01/16 08:14:47;;;;;;;0.10;0.10;;;0.60;99.90;;;;;;4973220;28;20034;-88
2021/01/16 08:17:17;;;;;;;0.00;0.00;;;0.60;99.90;;;;;;4972943;28;20110;-88
2021/01/16 08:20:00;;;;;;;0.00;0.00;;;0.60;99.90;;;;;;4973226;28;20044;-90
2021/01/16 08:22:41;;;;;;;0.00;0.00;;;0.60;99.90;;;;;;4973531;28;20118;-88
2021/01/16 08:25:10;;;;;;;0.00;0.00;;;0.60;99.90;;;;;;4973132;28;20042;-88
2021/01/16 08:27:38;;;;;;;0.00;0.00;;;0.60;99.90;;;;;;4989122;28;20026;-88
2021/01/16 08:30:12;;;;;;;0.28;0.28;;;0.60;99.90;;;;;;4973094;28;20031;-87
2021/01/16 08:33:04;;;;;;;0.00;0.00;;;0.60;99.90;;;;;;4972761;28;20030;-88
2021/01/16 08:35:37;;;;;;;2.85;2.63;;;0.70;99.90;;;;;;4971518;28;20046;-87
2021/01/16 08:38:17;;;;;;;0.00;0.00;;;0.70;99.90;;;;;;4989072;28;20030;-86
2021/01/16 08:40:54;;;;;;;0.00;0.00;;;0.70;99.90;;;;;;4972755;28;20045;-88
2021/01/16 08:43:35;;;;;;;1.10;1.10;;;0.70;99.90;;;;;;4972564;28;20049;-87
2021/01/16 08:48:30;;;;;;;1.08;1.08;;;0.70;99.90;;;;;;4964068;29;20495;-87
2021/01/16 08:50:55;;;;;;;0.20;0.20;;;0.70;99.90;;;;;;4949978;29;20046;-87
2021/01/16 08:53:21;;;;;;;0.98;0.93;;;0.80;99.90;;;;;;4949773;29;20058;-87
2021/01/16 08:55:47;;;;;;;0.00;0.00;;;0.80;99.90;;;;;;4934392;29;20031;-87
2021/01/16 08:58:13;;;;;;;0.00;0.00;;;0.80;99.90;;;;;;4950218;29;20498;-88
2021/01/16 09:00:40;;;;;;;0.38;0.38;;;0.80;99.90;;;;;;4934284;29;20202;-86
2021/01/16 09:03:19;;;;;;;0.55;0.55;;;0.90;99.90;;;;;;4949808;29;20038;-87
2021/01/16 09:05:59;;;;;;;0.00;0.00;;;0.90;99.90;;;;;;4934052;29;20102;-87
2021/01/16 09:08:26;;;;;;;0.28;0.28;;;0.90;99.90;;;;;;4949999;29;20027;-86
2021/01/16 09:10:54;;;;;;;0.45;0.45;;;0.90;99.90;;;;;;4965906;29;20043;-87
2021/01/16 09:13:23;;;;;;;1.17;1.17;;;0.90;99.90;;;;;;4933829;29;20060;-87
2021/01/16 09:15:49;;;;;;;0.00;0.00;;;0.90;99.90;;;;;;4933654;29;20035;-87
2021/01/16 09:18:15;;;;;;;0.00;0.00;;;1.00;99.90;;;;;;4949935;29;20279;-87
2021/01/16 09:20:43;;;;;;;0.00;0.00;;;1.00;99.90;;;;;;4949617;29;20484;-87
2021/01/16 09:23:31;;;;;;;0.00;0.00;;;1.00;99.90;;;;;;4933929;29;20035;-87
2021/01/16 09:25:58;;;;;;;0.00;0.00;;;1.10;99.90;;;;;;4933941;29;20043;-90
2021/01/16 09:28:51;;;;;;;0.00;0.00;;;1.10;99.90;;;;;;4933884;29;20031;-88
2021/01/16 09:31:22;;;;;;;1.60;1.50;;;1.10;99.90;;;;;;4943328;29;20050;-86
2021/01/16 09:33:50;;;;;;;0.00;0.00;;;1.10;99.90;;;;;;4935935;29;20027;-89
2021/01/16 09:36:35;;;;;;;0.00;0.00;;;1.10;99.90;;;;;;4933713;29;20044;-87
2021/01/16 09:39:03;;;;;;;0.20;0.20;;;1.10;99.90;;;;;;4933439;29;20027;-87
2021/01/16 09:41:33;;;;;;;0.00;0.00;;;1.10;99.90;;;;;;4934678;29;20027;-87
2021/01/16 09:43:59;;;;;;;0.25;0.25;;;1.10;99.90;;;;;;4937730;29;20495;-87
2021/01/16 09:46:54;;;;;;;0.00;0.00;;;1.10;99.90;;;;;;4954997;28;20043;-87
2021/01/16 09:49:44;;;;;;;0.00;0.00;;;1.10;99.90;;;;;;4948170;28;20046;-87
2021/01/16 09:52:09;;;;;;;0.20;0.20;;;1.10;99.90;;;;;;4972395;28;20031;-87
2021/01/16 09:54:35;;;;;;;0.00;0.00;;;1.10;99.90;;;;;;4972569;28;20026;-88
2021/01/16 09:57:02;;;;;;;0.00;0.00;;;1.20;99.90;;;;;;4972488;28;20471;-88
2021/01/16 09:59:28;;;;;;;0.00;0.00;;;1.20;99.90;;;;;;4972354;28;20498;-87
2021/01/16 10:02:13;;;;;;;0.00;0.00;;;1.20;99.90;;;;;;4956240;28;20038;-88
2021/01/16 10:04:44;;;;;;;0.00;0.00;;;1.20;99.90;;;;;;4972316;28;20065;-87
2021/01/16 10:07:12;;;;;;;3.80;3.53;;;1.30;99.90;;;;;;4972125;28;20030;-88
2021/01/16 10:09:45;;;;;;;0.00;0.00;;;1.30;99.90;;;;;;4972095;28;20129;-86
2021/01/16 10:12:33;;;;;;;0.35;0.35;;;1.30;99.90;;;;;;4972082;28;20045;-88
2021/01/16 10:15:05;;;;;;;0.00;0.00;;;1.30;99.90;;;;;;4972328;28;20035;-88
2021/01/16 10:17:32;;;;;;;0.22;0.22;;;1.40;99.90;;;;;;4972022;28;20102;-88
2021/01/16 10:20:18;;;;;;;0.00;0.00;;;1.50;99.90;;;;;;4971782;28;20085;-88
2021/01/16 10:22:53;;;;;;;0.00;0.00;;;1.40;99.90;;;;;;4972028;28;20437;-92
2021/01/16 10:25:23;;;;;;;0.00;0.00;;;1.50;99.90;;;;;;4949242;28;20042;-89
2021/01/16 10:27:52;;;;;;;0.00;0.00;;;1.50;99.90;;;;;;4972437;28;20114;-90
2021/01/16 10:30:20;;;;;;;3.53;2.17;;;1.60;99.90;;;;;;4967723;28;20471;-91
2021/01/16 10:32:46;;;;;;;0.00;0.00;;;1.60;99.90;;;;;;4955617;28;20073;-90
2021/01/16 10:35:27;;;;;;;0.22;0.22;;;1.60;99.90;;;;;;4970775;28;20027;-89
2021/01/16 10:37:58;;;;;;;0.00;0.00;;;1.60;99.90;;;;;;4961337;28;20039;-90
2021/01/16 10:40:24;;;;;;;0.00;0.00;;;1.60;99.90;;;;;;4970443;28;20064;-91
2021/01/16 10:42:55;;;;;;;0.00;0.00;;;1.70;99.90;;;;;;4970771;28;20034;-90
2021/01/16 10:46:01;;;;;;;0.10;0.10;;;1.60;99.90;;;;;;4957667;28;20035;-89
2021/01/16 10:48:37;;;;;;;0.00;0.00;;;1.60;99.90;;;;;;4934175;29;20067;-90
2021/01/16 10:51:05;;;;;;;0.00;0.00;;;1.70;99.90;;;;;;4934375;29;20118;-89
2021/01/16 10:53:38;;;;;;;0.00;0.00;;;1.80;99.90;;;;;;4914285;29;20044;-89
2021/01/16 10:56:11;;;;;;;0.00;0.00;;;1.80;99.90;;;;;;4935271;29;20140;-89
2021/01/16 10:58:38;;;;;;;5.38;2.50;;;1.90;99.90;;;;;;4951869;28;20023;-90
2021/01/16 11:01:04;;;;;;;0.25;0.00;;;1.90;99.90;;;;;;4918480;29;20028;-90
2021/01/16 11:03:31;;;;;;;0.00;0.00;;;1.80;99.90;;;;;;4915290;29;20040;-89
2021/01/16 11:06:06;;;;;;;0.13;0.10;;;1.90;99.90;;;;;;4916342;29;20038;-90
2021/01/16 11:08:34;;;;;;;0.00;0.00;;;1.90;99.90;;;;;;4913486;29;20144;-89
2021/01/16 11:11:00;;;;;;;0.00;0.00;;;1.90;99.90;;;;;;4914266;29;20628;-90
2021/01/16 11:13:30;;;;;;;5.70;3.70;;;1.90;99.90;;;;;;4920175;29;20040;-90
2021/01/16 11:15:57;;;;;;;0.00;0.00;;;1.90;99.90;;;;;;4913219;29;20532;-90
2021/01/16 11:18:30;;;;;;;0.00;0.00;;;1.90;99.90;;;;;;4914618;29;20279;-90
2021/01/16 11:21:01;;;;;;;0.00;0.00;;;1.90;99.90;;;;;;4928522;29;20056;-89
2021/01/16 11:23:36;;;;;;;0.10;0.00;;;2.00;99.90;;;;;;4915904;29;20032;-90
2021/01/16 11:26:08;;;;;;;0.00;0.00;;;1.90;99.90;;;;;;4938513;28;20051;-90
2021/01/16 11:28:47;;;;;;;0.00;0.00;;;2.00;99.90;;;;;;4958075;28;20090;-92
2021/01/16 11:31:35;;;;;;;52.15;11.98;;;2.00;99.90;;;;;;4970238;28;20049;-89
2021/01/16 11:34:11;;;;;;;0.60;0.60;;;2.10;99.90;;;;;;4963955;28;20038;-90
2021/01/16 11:37:01;;;;;;;10.80;10.20;;;2.10;99.90;;;;;;4923213;28;20049;-90
2021/01/16 11:39:53;;;;;;;0.32;0.32;;;2.10;99.90;;;;;;4948747;29;20050;-88
2021/01/16 11:42:20;;;;;;;0.00;0.00;;;2.10;99.90;;;;;;4948079;28;20039;-90
2021/01/16 11:45:00;;;;;;;0.00;0.00;;;2.10;99.90;;;;;;4932336;28;20148;-89
2021/01/16 11:47:28;;;;;;;1.65;1.65;;;2.10;99.90;;;;;;4959511;28;20055;-90
2021/01/16 11:49:57;;;;;;;1.33;1.23;;;2.10;99.90;;;;;;4967436;28;20046;-89
2021/01/16 11:52:22;;;;;;;0.38;0.38;;;2.10;99.90;;;;;;4981939;28;20065;-91
2021/01/16 11:54:49;;;;;;;1.38;0.65;;;2.10;99.90;;;;;;4960690;28;20026;-90
2021/01/16 11:57:20;;;;;;;0.28;0.22;;;2.10;99.90;;;;;;4967498;28;20052;-91
2021/01/16 11:59:47;;;;;;;0.00;0.00;;;2.10;99.90;;;;;;4953994;28;20043;-91
2021/01/16 12:02:18;;;;;;;0.00;0.00;;;2.10;99.90;;;;;;4992204;28;20035;-90
2021/01/16 12:04:45;;;;;;;0.20;0.20;;;2.00;99.90;;;;;;4979278;28;20036;-89
2021/01/16 12:07:13;;;;;;;0.38;0.38;;;2.10;99.90;;;;;;4985790;28;20035;-91
2021/01/16 12:09:43;;;;;;;0.00;0.00;;;2.10;99.90;;;;;;4965830;28;20042;-89
2021/01/16 12:12:12;;;;;;;0.00;0.00;;;2.10;99.90;;;;;;4967983;28;20447;-90
2021/01/16 12:14:39;;;;;;;0.00;0.00;;;2.10;99.90;;;;;;4986936;28;20030;-89
2021/01/16 12:17:19;;;;;;;0.00;0.00;;;2.10;99.90;;;;;;4968337;28;20125;-90
2021/01/16 12:19:50;;;;;;;1.75;0.30;;;2.10;99.90;;;;;;4981801;28;20042;-89
2021/01/16 12:22:21;;;;;;;0.00;0.00;;;2.10;99.90;;;;;;4953277;28;20035;-89
2021/01/16 12:24:47;;;;;;;0.10;0.10;;;2.10;99.90;;;;;;4965737;28;20037;-90
2021/01/16 12:27:58;;;;;;;0.00;0.00;;;2.10;99.90;;;;;;4942123;28;20050;-89
2021/01/16 12:30:48;;;;;;;0.00;0.00;;;2.10;99.90;;;;;;4937286;28;20097;-92
2021/01/16 12:33:39;;;;;;;0.00;0.00;;;2.20;99.90;;;;;;4970341;28;20065;-89
2021/01/16 12:39:00;;;;;;;1.05;0.25;;;2.20;99.90;;;;;;5072346;23;20050;-90
2021/01/16 12:41:26;;;;;;;0.00;0.00;;;2.10;99.90;;;;;;4968003;28;20540;-89
2021/01/16 12:43:53;;;;;;;0.25;0.25;;;2.20;99.90;;;;;;4964294;28;20096;-89
2021/01/16 12:46:21;;;;;;;1.00;0.55;;;2.30;99.90;;;;;;4974233;28;20026;-91
2021/01/16 12:48:47;;;;;;;0.10;0.00;;;2.20;99.90;;;;;;4961460;28;20039;-90
2021/01/16 12:51:17;;;;;;;0.60;0.20;;;2.20;99.90;;;;;;4958515;28;20124;-86
2021/01/16 12:53:44;;;;;;;0.90;0.53;;;2.20;99.90;;;;;;4959578;28;20030;-92
2021/01/16 12:56:17;;;;;;;0.70;0.30;;;2.10;99.90;;;;;;4961128;28;20281;-90
2021/01/16 12:58:45;;;;;;;0.80;0.00;;;2.10;99.90;;;;;;4970854;28;20050;-90
2021/01/16 13:01:11;;;;;;;0.00;0.00;;;2.10;99.90;;;;;;4974973;28;20026;-90
2021/01/16 13:03:42;;;;;;;0.20;0.20;;;2.10;99.90;;;;;;4968559;28;20034;-88
2021/01/16 13:06:08;;;;;;;0.28;0.25;;;2.10;99.90;;;;;;4968049;28;20057;-89
2021/01/16 13:08:36;;;;;;;0.40;0.10;;;2.00;99.90;;;;;;4969136;28;20037;-87
2021/01/16 13:11:02;;;;;;;0.15;0.15;;;1.90;99.90;;;;;;4971529;28;20045;-89
2021/01/16 13:13:28;;;;;;;1.75;0.10;;;1.90;99.90;;;;;;4982863;28;20026;-88
2021/01/16 13:16:00;;;;;;;0.00;0.00;;;1.90;99.90;;;;;;4965911;28;20027;-89
2021/01/16 13:18:32;;;;;;;0.00;0.00;;;1.90;99.90;;;;;;4972008;28;20109;-91
2021/01/16 13:21:00;;;;;;;2.83;2.60;;;1.90;99.90;;;;;;4969353;28;20031;-89